createdAt,value
2017-11-06T00:01:03.211Z,2.70
2017-11-06T00:03:31.557Z,2.80
2017-11-06T00:05:59.091Z,2.70
2017-11-06T00:08:26.657Z,2.70
2017-11-06T00:10:54.178Z,2.80
2017-11-06T00:13:22.500Z,2.70
2017-11-06T00:15:50.040Z,2.70
2017-11-06T00:18:17.732Z,2.70
2017-11-06T00:20:45.266Z,2.70
2017-11-06T00:23:12.827Z,2.70
2017-11-06T00:25:40.358Z,2.70
2017-11-06T00:28:08.689Z,2.80
2017-11-06T00:30:36.220Z,2.80
2017-11-06T00:33:03.784Z,2.70
2017-11-06T00:35:31.315Z,2.70
2017-11-06T00:37:59.643Z,2.60
2017-11-06T00:40:27.177Z,2.60
2017-11-06T00:42:54.742Z,2.60
2017-11-06T00:45:22.276Z,2.60
2017-11-06T00:47:50.600Z,2.50
2017-11-06T00:50:18.135Z,2.50
2017-11-06T00:52:45.699Z,2.50
2017-11-06T00:55:13.245Z,2.50
2017-11-06T00:57:40.802Z,2.40
2017-11-06T01:00:08.335Z,2.40
2017-11-06T01:02:36.659Z,2.30
2017-11-06T01:05:04.190Z,2.30
2017-11-06T01:07:32.547Z,2.20
2017-11-06T01:10:00.075Z,2.20
2017-11-06T01:12:27.617Z,2.20
2017-11-06T01:14:55.168Z,2.20
2017-11-06T01:17:22.699Z,2.20
2017-11-06T01:19:51.024Z,2.10
2017-11-06T01:22:19.324Z,2.10
2017-11-06T01:24:46.890Z,2.10
2017-11-06T01:27:14.442Z,2.10
2017-11-06T01:29:41.991Z,2.10
2017-11-06T01:32:09.530Z,2.00
2017-11-06T01:34:37.078Z,2.00
2017-11-06T01:37:04.615Z,2.00
2017-11-06T01:39:32.939Z,2.10
2017-11-06T01:42:00.475Z,2.10
2017-11-06T01:44:28.044Z,2.10
2017-11-06T01:46:55.579Z,2.20
2017-11-06T01:49:23.130Z,2.30
2017-11-06T01:51:51.426Z,2.20
2017-11-06T01:54:18.979Z,2.20
2017-11-06T01:56:52.351Z,2.20
2017-11-06T01:59:20.677Z,2.00
2017-11-06T02:01:48.212Z,2.00
2017-11-06T02:04:15.776Z,1.90
2017-11-06T02:06:43.304Z,1.90
2017-11-06T02:09:10.863Z,1.80
2017-11-06T02:11:38.398Z,1.70
2017-11-06T02:14:05.955Z,1.50
2017-11-06T02:16:33.487Z,1.40
2017-11-06T02:19:01.039Z,1.50
2017-11-06T02:21:28.570Z,1.40
2017-11-06T02:23:56.899Z,1.60
2017-11-06T02:26:24.432Z,1.60
2017-11-06T02:28:52.001Z,1.70
2017-11-06T02:31:19.531Z,1.80
2017-11-06T02:33:47.825Z,1.90
2017-11-06T02:36:15.382Z,1.90
2017-11-06T02:38:42.925Z,2.00
2017-11-06T02:41:11.252Z,1.80
2017-11-06T02:43:38.791Z,1.80
2017-11-06T02:46:06.347Z,1.80
2017-11-06T02:48:33.892Z,1.80
2017-11-06T02:51:01.464Z,1.80
2017-11-06T02:53:28.999Z,1.80
2017-11-06T02:55:57.334Z,2.00
2017-11-06T02:58:24.867Z,1.90
2017-11-06T03:00:52.420Z,2.00
2017-11-06T03:03:19.951Z,2.00
2017-11-06T03:05:48.283Z,2.10
2017-11-06T03:08:15.819Z,2.10
2017-11-06T03:10:43.376Z,2.00
2017-11-06T03:13:10.914Z,2.10
2017-11-06T03:15:39.241Z,2.10
2017-11-06T03:18:06.775Z,2.10
2017-11-06T03:20:34.338Z,2.20
2017-11-06T03:23:01.874Z,2.00
2017-11-06T03:25:30.192Z,1.90
2017-11-06T03:27:57.722Z,1.90
2017-11-06T03:30:25.277Z,1.80
2017-11-06T03:32:53.579Z,1.90
2017-11-06T03:35:21.135Z,1.90
2017-11-06T03:37:48.667Z,1.80
2017-11-06T03:40:16.989Z,1.80
2017-11-06T03:42:44.525Z,1.80
2017-11-06T03:45:12.100Z,1.70
2017-11-06T03:47:39.631Z,1.60
2017-11-06T03:50:07.947Z,1.50
2017-11-06T03:52:35.478Z,1.50
2017-11-06T03:55:03.039Z,1.60
2017-11-06T03:57:30.572Z,1.60
2017-11-06T03:59:58.892Z,1.60
2017-11-06T04:02:26.428Z,1.60
2017-11-06T04:04:53.987Z,1.70
2017-11-06T04:07:21.522Z,1.70
2017-11-06T04:09:49.087Z,1.70
2017-11-06T04:12:17.394Z,1.70
2017-11-06T04:14:44.958Z,1.70
2017-11-06T04:17:12.491Z,1.80
2017-11-06T04:19:40.817Z,1.60
2017-11-06T04:22:08.351Z,1.60
2017-11-06T04:24:35.904Z,1.50
2017-11-06T04:27:03.439Z,1.60
2017-11-06T04:29:31.766Z,1.60
2017-11-06T04:31:59.304Z,1.50
2017-11-06T04:34:26.873Z,1.60
2017-11-06T04:36:54.403Z,1.30
2017-11-06T04:39:22.707Z,1.20
2017-11-06T04:41:50.272Z,1.20
2017-11-06T04:44:17.805Z,1.10
2017-11-06T04:46:46.137Z,0.90
2017-11-06T04:49:14.452Z,0.80
2017-11-06T04:51:42.776Z,0.90
2017-11-06T04:54:10.317Z,0.80
2017-11-06T04:56:37.880Z,0.80
2017-11-06T04:59:05.423Z,0.70
2017-11-06T05:01:33.759Z,0.60
2017-11-06T05:04:01.299Z,0.60
2017-11-06T05:06:28.858Z,0.60
2017-11-06T05:08:56.395Z,0.60
2017-11-06T05:11:23.950Z,0.50
2017-11-06T05:13:51.479Z,0.40
2017-11-06T05:16:19.035Z,0.50
2017-11-06T05:18:46.563Z,0.50
2017-11-06T05:21:14.123Z,0.50
2017-11-06T05:23:41.655Z,0.40
2017-11-06T05:26:09.225Z,0.30
2017-11-06T05:28:36.787Z,0.40
2017-11-06T05:31:04.337Z,0.40
2017-11-06T05:33:31.880Z,0.40
2017-11-06T05:35:59.445Z,0.40
2017-11-06T05:38:26.974Z,0.40
2017-11-06T05:40:54.719Z,0.40
2017-11-06T05:43:22.256Z,0.40
2017-11-06T05:45:49.811Z,0.40
2017-11-06T05:48:17.355Z,0.50
2017-11-06T05:50:44.919Z,0.60
2017-11-06T05:53:12.446Z,0.50
2017-11-06T05:55:40.789Z,0.40
2017-11-06T05:58:09.123Z,0.40
2017-11-06T06:00:36.684Z,0.40
2017-11-06T06:03:04.220Z,0.40
2017-11-06T06:05:32.543Z,0.40
2017-11-06T06:08:00.083Z,0.40
2017-11-06T06:10:27.644Z,0.40
2017-11-06T06:12:55.348Z,0.30
2017-11-06T06:15:23.212Z,0.50
2017-11-06T06:17:51.280Z,0.70
2017-11-06T06:20:18.848Z,0.80
2017-11-06T06:22:47.329Z,0.90
2017-11-06T06:25:14.958Z,1.10
2017-11-06T06:27:42.492Z,1.30
2017-11-06T06:30:10.825Z,1.30
2017-11-06T06:32:38.347Z,1.30
2017-11-06T06:35:05.919Z,1.40
2017-11-06T06:37:33.464Z,1.40
2017-11-06T06:40:00.991Z,1.40
2017-11-06T06:42:28.551Z,1.40
2017-11-06T06:44:56.858Z,1.30
2017-11-06T06:47:24.416Z,1.30
2017-11-06T06:49:51.951Z,1.30
2017-11-06T06:52:19.507Z,1.20
2017-11-06T06:54:47.043Z,1.10
2017-11-06T06:57:14.610Z,1.20
2017-11-06T06:59:42.145Z,1.20
2017-11-06T07:02:09.711Z,1.20
2017-11-06T07:04:37.248Z,1.10
2017-11-06T07:07:04.801Z,1.20
2017-11-06T07:09:32.336Z,1.10
2017-11-06T07:12:00.667Z,1.30
2017-11-06T07:14:28.208Z,1.30
2017-11-06T07:16:55.772Z,1.20
2017-11-06T07:19:23.312Z,1.20
2017-11-06T07:21:50.874Z,1.30
2017-11-06T07:24:18.407Z,1.30
2017-11-06T07:26:46.709Z,1.50
2017-11-06T07:29:14.268Z,1.40
2017-11-06T07:31:41.795Z,1.50
2017-11-06T07:34:09.354Z,1.40
2017-11-06T07:36:36.889Z,1.30
2017-11-06T07:39:04.464Z,1.50
2017-11-06T07:41:32.004Z,1.50
2017-11-06T07:43:59.568Z,1.50
2017-11-06T07:46:27.112Z,1.60
2017-11-06T07:48:54.678Z,1.70
2017-11-06T07:51:22.211Z,1.80
2017-11-06T07:53:49.771Z,1.90
2017-11-06T07:56:17.310Z,2.00
2017-11-06T07:58:45.631Z,2.10
2017-11-06T08:01:13.163Z,2.10
2017-11-06T08:03:40.724Z,2.20
2017-11-06T08:06:08.270Z,2.10
2017-11-06T08:08:36.600Z,2.30
2017-11-06T08:11:04.144Z,2.30
2017-11-06T08:13:31.702Z,2.20
2017-11-06T08:15:59.240Z,2.30
2017-11-06T08:18:26.804Z,2.30
2017-11-06T08:20:54.339Z,2.40
2017-11-06T08:23:22.700Z,2.10
2017-11-06T08:25:50.276Z,2.10
2017-11-06T08:28:17.791Z,2.30
2017-11-06T08:30:45.352Z,2.60
2017-11-06T08:33:12.881Z,2.70
2017-11-06T08:35:40.441Z,2.40
2017-11-06T08:38:07.971Z,2.20
2017-11-06T08:40:36.300Z,2.40
2017-11-06T08:43:03.838Z,2.40
2017-11-06T08:45:31.391Z,2.40
2017-11-06T08:47:58.929Z,2.40
2017-11-06T08:50:27.251Z,2.50
2017-11-06T08:52:54.784Z,2.50
2017-11-06T08:55:22.352Z,2.50
2017-11-06T08:57:49.887Z,2.70
2017-11-06T09:00:18.219Z,2.70
2017-11-06T09:02:45.754Z,2.60
2017-11-06T09:05:13.320Z,2.90
2017-11-06T09:07:40.846Z,3.00
2017-11-06T09:10:09.171Z,3.40
2017-11-06T09:12:36.714Z,3.40
2017-11-06T09:15:04.287Z,3.40
2017-11-06T09:17:55.914Z,3.50
2017-11-06T09:20:23.483Z,3.50
2017-11-06T09:22:51.015Z,3.50
2017-11-06T09:25:18.577Z,3.70
2017-11-06T09:27:46.125Z,4.00
2017-11-06T09:30:13.664Z,4.30
2017-11-06T09:32:41.999Z,5.10
2017-11-06T09:35:09.543Z,5.10
2017-11-06T09:37:37.100Z,5.20
2017-11-06T09:40:04.637Z,5.10
2017-11-06T09:42:32.211Z,5.00
2017-11-06T09:44:59.744Z,5.20
2017-11-06T09:47:28.075Z,5.00
2017-11-06T09:49:55.602Z,5.00
2017-11-06T09:52:23.158Z,5.10
2017-11-06T09:54:50.690Z,5.10
2017-11-06T09:57:19.011Z,5.30
2017-11-06T09:59:46.543Z,5.30
2017-11-06T10:02:14.866Z,5.40
2017-11-06T10:04:42.405Z,5.40
2017-11-06T10:07:09.959Z,5.80
2017-11-06T10:09:37.494Z,6.10
2017-11-06T10:12:05.820Z,6.30
2017-11-06T10:14:33.353Z,6.30
2017-11-06T10:17:00.906Z,6.40
2017-11-06T10:19:28.443Z,6.30
2017-11-06T10:21:56.770Z,6.10
2017-11-06T10:24:24.299Z,6.10
2017-11-06T10:26:51.849Z,6.00
2017-11-06T10:29:20.145Z,6.50
2017-11-06T10:31:47.702Z,6.50
2017-11-06T10:34:15.231Z,6.70
2017-11-06T10:36:42.783Z,6.80
2017-11-06T10:39:10.311Z,6.90
2017-11-06T10:41:37.867Z,6.70
2017-11-06T10:44:05.404Z,6.60
2017-11-06T10:46:32.960Z,6.50
2017-11-06T10:49:00.491Z,6.60
2017-11-06T10:51:28.808Z,6.80
2017-11-06T10:53:56.339Z,6.80
2017-11-06T10:56:23.903Z,7.20
2017-11-06T10:58:52.190Z,7.70
2017-11-06T11:01:19.740Z,7.70
2017-11-06T11:03:48.029Z,8.50
2017-11-06T11:06:15.584Z,8.40
2017-11-06T11:08:43.115Z,8.50
2017-11-06T11:11:10.669Z,8.40
2017-11-06T11:13:38.195Z,8.30
2017-11-06T11:16:05.745Z,8.60
2017-11-06T11:18:33.267Z,8.50
2017-11-06T11:21:01.596Z,8.20
2017-11-06T11:23:29.118Z,8.20
2017-11-06T11:25:56.671Z,8.40
2017-11-06T11:28:24.996Z,8.40
2017-11-06T11:30:52.531Z,8.40
2017-11-06T11:33:20.080Z,8.30
2017-11-06T11:35:47.603Z,8.30
2017-11-06T11:38:15.163Z,8.40
2017-11-06T11:40:42.691Z,8.50
2017-11-06T11:43:10.240Z,8.90
2017-11-06T11:45:37.770Z,9.10
2017-11-06T11:48:05.319Z,9.20
2017-11-06T11:50:33.613Z,9.00
2017-11-06T11:53:01.166Z,9.00
2017-11-06T11:55:28.700Z,8.80
2017-11-06T11:57:56.246Z,8.80
2017-11-06T12:00:23.783Z,8.80
2017-11-06T12:02:51.335Z,8.90
2017-11-06T12:05:18.859Z,8.80
2017-11-06T12:07:47.177Z,8.60
2017-11-06T12:10:14.703Z,8.60
2017-11-06T12:12:42.259Z,8.50
2017-11-06T12:15:09.788Z,8.60
2017-11-06T12:17:37.345Z,8.60
2017-11-06T12:20:04.867Z,8.40
2017-11-06T12:22:32.415Z,8.30
2017-11-06T12:24:59.955Z,8.30
2017-11-06T12:27:27.508Z,8.30
2017-11-06T12:29:55.799Z,8.40
2017-11-06T12:32:23.343Z,8.40
2017-11-06T12:34:51.639Z,8.70
2017-11-06T12:37:19.186Z,8.70
2017-11-06T12:39:46.711Z,8.80
2017-11-06T12:42:14.274Z,8.80
2017-11-06T12:44:41.799Z,8.70
2017-11-06T12:47:09.354Z,8.40
2017-11-06T12:49:36.875Z,8.30
2017-11-06T12:52:05.195Z,8.50
2017-11-06T12:54:32.727Z,8.50
2017-11-06T12:57:00.284Z,8.60
2017-11-06T12:59:27.805Z,8.60
2017-11-06T13:01:55.350Z,8.60
2017-11-06T13:04:22.873Z,8.60
2017-11-06T13:06:50.425Z,8.70
2017-11-06T13:09:17.953Z,8.80
2017-11-06T13:11:45.503Z,8.80
2017-11-06T13:14:13.034Z,8.80
2017-11-06T13:16:40.595Z,8.50
2017-11-06T13:19:08.128Z,8.40
2017-11-06T13:21:35.692Z,8.30
2017-11-06T13:24:03.216Z,8.30
2017-11-06T13:26:31.520Z,8.70
2017-11-06T13:28:59.074Z,8.70
2017-11-06T13:31:26.603Z,8.80
2017-11-06T13:33:54.150Z,8.90
2017-11-06T13:36:21.680Z,8.90
2017-11-06T13:38:49.237Z,8.80
2017-11-06T13:41:16.755Z,8.80
2017-11-06T13:43:45.075Z,8.40
2017-11-06T13:46:12.607Z,8.40
2017-11-06T13:48:40.915Z,8.10
2017-11-06T13:51:08.448Z,8.10
2017-11-06T13:53:36.004Z,8.00
2017-11-06T13:56:03.535Z,8.00
2017-11-06T13:58:31.086Z,7.90
2017-11-06T14:00:58.611Z,7.90
2017-11-06T14:03:26.160Z,7.80
2017-11-06T14:05:53.680Z,8.00
2017-11-06T14:08:22.009Z,8.10
2017-11-06T14:10:49.554Z,8.10
2017-11-06T14:13:17.112Z,8.40
2017-11-06T14:15:44.637Z,8.40
2017-11-06T14:18:12.968Z,8.50
2017-11-06T14:20:40.497Z,8.50
2017-11-06T14:23:08.047Z,8.50
2017-11-06T14:25:36.341Z,8.40
2017-11-06T14:28:03.895Z,8.40
2017-11-06T14:30:31.423Z,8.30
2017-11-06T14:32:58.986Z,8.20
2017-11-06T14:35:26.516Z,8.20
2017-11-06T14:37:54.072Z,8.10
2017-11-06T14:40:21.595Z,8.20
2017-11-06T14:42:49.151Z,8.30
2017-11-06T14:45:16.686Z,8.30
2017-11-06T14:47:45.001Z,8.10
2017-11-06T14:50:12.536Z,8.10
2017-11-06T14:52:40.852Z,8.00
2017-11-06T14:55:08.384Z,8.00
2017-11-06T14:57:35.934Z,8.00
2017-11-06T15:00:04.227Z,8.00
2017-11-06T15:02:31.779Z,8.00
2017-11-06T15:04:59.310Z,7.90
2017-11-06T15:07:26.855Z,7.80
2017-11-06T15:09:54.385Z,7.80
2017-11-06T15:12:21.938Z,7.80
2017-11-06T15:14:49.462Z,7.70
2017-11-06T15:17:17.787Z,7.60
2017-11-06T15:19:45.318Z,7.60
2017-11-06T15:22:12.863Z,7.50
2017-11-06T15:24:41.167Z,7.20
2017-11-06T15:27:08.719Z,7.20
2017-11-06T15:29:36.244Z,7.10
2017-11-06T15:32:03.827Z,7.10
2017-11-06T15:34:31.358Z,7.10
2017-11-06T15:36:58.884Z,7.10
2017-11-06T15:39:27.207Z,7.10
2017-11-06T15:41:55.512Z,7.10
2017-11-06T15:44:23.063Z,7.00
2017-11-06T15:46:50.608Z,7.10
2017-11-06T15:49:18.931Z,7.00
2017-11-06T15:51:46.464Z,7.00
2017-11-06T15:54:14.024Z,6.90
2017-11-06T15:56:41.558Z,6.90
2017-11-06T15:59:09.880Z,6.80
2017-11-06T16:01:37.402Z,6.80
2017-11-06T16:04:05.719Z,6.70
2017-11-06T16:06:33.251Z,6.70
2017-11-06T16:09:00.804Z,6.70
2017-11-06T16:11:29.101Z,6.70
2017-11-06T16:13:56.662Z,6.70
2017-11-06T16:16:24.203Z,6.70
2017-11-06T16:18:52.515Z,6.60
2017-11-06T16:21:20.061Z,6.50
2017-11-06T16:23:47.625Z,6.50
2017-11-06T16:26:15.156Z,6.50
2017-11-06T16:28:43.471Z,6.40
2017-11-06T16:31:11.003Z,6.30
2017-11-06T16:33:38.575Z,6.40
2017-11-06T16:36:06.107Z,6.40
2017-11-06T16:38:34.439Z,6.20
2017-11-06T16:41:01.975Z,6.20
2017-11-06T16:43:30.300Z,6.20
2017-11-06T16:45:57.835Z,6.20
2017-11-06T16:48:25.386Z,6.10
2017-11-06T16:50:52.926Z,6.00
2017-11-06T16:53:20.479Z,6.10
2017-11-06T16:55:48.007Z,6.00
2017-11-06T16:58:15.567Z,6.00
2017-11-06T17:00:43.094Z,6.00
2017-11-06T17:03:10.647Z,6.00
2017-11-06T17:05:38.175Z,6.00
2017-11-06T17:08:05.724Z,6.10
2017-11-06T17:10:34.019Z,6.10
2017-11-06T17:13:01.585Z,6.10
2017-11-06T17:15:29.130Z,6.10
2017-11-06T17:17:56.687Z,6.00
2017-11-06T17:20:24.975Z,5.80
2017-11-06T17:22:52.536Z,5.80
2017-11-06T17:25:20.064Z,5.80
2017-11-06T17:27:48.384Z,5.60
2017-11-06T17:30:15.914Z,5.60
2017-11-06T17:32:44.243Z,5.70
2017-11-06T17:35:11.896Z,5.70
2017-11-06T17:37:39.458Z,5.70
2017-11-06T17:40:07.932Z,5.60
2017-11-06T17:42:35.514Z,5.40
2017-11-06T17:45:03.045Z,5.50
2017-11-06T17:47:30.578Z,5.50
2017-11-06T17:49:58.137Z,5.50
2017-11-06T17:52:26.427Z,5.40
2017-11-06T17:54:54.022Z,5.40
2017-11-06T17:57:25.324Z,5.40
2017-11-06T17:59:53.649Z,5.20
2017-11-06T18:02:21.187Z,5.10
2017-11-06T18:04:48.751Z,5.10
2017-11-06T18:07:16.284Z,5.00
2017-11-06T18:09:43.841Z,4.90
2017-11-06T18:12:11.379Z,4.90
2017-11-06T18:14:39.710Z,5.10
2017-11-06T18:17:07.239Z,5.00
2017-11-06T18:19:34.802Z,5.00
2017-11-06T18:22:02.344Z,5.00
2017-11-06T18:24:30.672Z,4.80
2017-11-06T18:26:58.211Z,4.80
2017-11-06T18:29:25.918Z,4.80
2017-11-06T18:31:54.323Z,4.90
2017-11-06T18:34:21.899Z,4.80
2017-11-06T18:36:49.432Z,4.90
2017-11-06T18:39:16.994Z,4.80
2017-11-06T18:41:44.519Z,4.80
2017-11-06T18:44:12.836Z,4.70
2017-11-06T18:46:41.131Z,4.80
2017-11-06T18:49:09.451Z,5.00
2017-11-06T18:51:36.976Z,5.00
2017-11-06T18:54:04.578Z,5.00
2017-11-06T18:56:32.106Z,5.00
2017-11-06T18:58:59.673Z,5.10
2017-11-06T19:01:27.207Z,5.10
2017-11-06T19:03:55.528Z,5.20
2017-11-06T19:06:23.056Z,5.20
2017-11-06T19:08:50.612Z,5.20
2017-11-06T19:11:18.147Z,5.30
2017-11-06T19:13:46.480Z,5.40
2017-11-06T19:16:14.011Z,5.40
2017-11-06T19:18:41.568Z,5.30
2017-11-06T19:21:09.100Z,5.30
2017-11-06T19:23:37.432Z,5.40
2017-11-06T19:26:04.959Z,5.40
2017-11-06T19:28:32.518Z,5.50
2017-11-06T19:31:00.069Z,5.40
2017-11-06T19:33:28.403Z,5.40
2017-11-06T19:35:55.965Z,5.40
2017-11-06T19:38:23.548Z,5.30
2017-11-06T19:40:51.116Z,5.30
2017-11-06T19:43:19.443Z,5.10
2017-11-06T19:45:46.971Z,5.10
2017-11-06T19:48:14.605Z,5.10
2017-11-06T19:50:42.986Z,4.90
2017-11-06T19:53:11.335Z,4.90
2017-11-06T19:55:38.877Z,4.80
2017-11-06T19:58:06.411Z,4.80
2017-11-06T20:00:33.984Z,4.70
2017-11-06T20:03:01.521Z,4.80
2017-11-06T20:05:29.096Z,4.80
2017-11-06T20:07:56.648Z,4.80
2017-11-06T20:10:24.225Z,4.70
2017-11-06T20:12:51.798Z,4.50
2017-11-06T20:15:19.386Z,4.40
2017-11-06T20:17:46.974Z,4.30
2017-11-06T20:20:15.312Z,4.30
2017-11-06T20:22:42.847Z,4.30
2017-11-06T20:25:10.415Z,4.20
2017-11-06T20:27:37.952Z,4.20
2017-11-06T20:30:05.512Z,4.30
2017-11-06T20:32:33.052Z,4.40
2017-11-06T20:35:01.425Z,4.50
2017-11-06T20:37:29.728Z,4.60
2017-11-06T20:39:57.297Z,4.60
2017-11-06T20:42:24.834Z,4.60
2017-11-06T20:44:53.155Z,4.60
2017-11-06T20:47:20.682Z,4.60
2017-11-06T20:49:48.234Z,4.60
2017-11-06T20:52:16.542Z,4.30
2017-11-06T20:54:44.100Z,4.30
2017-11-06T20:57:11.635Z,4.20
2017-11-06T20:59:39.959Z,4.00
2017-11-06T21:02:07.498Z,4.00
2017-11-06T21:04:35.064Z,3.90
2017-11-06T21:07:02.595Z,3.90
2017-11-06T21:09:30.291Z,3.90
2017-11-06T21:11:57.824Z,3.90
2017-11-06T21:14:25.383Z,4.00
2017-11-06T21:16:52.928Z,3.90
2017-11-06T21:19:21.279Z,3.90
2017-11-06T21:21:48.816Z,3.80
2017-11-06T21:24:16.368Z,3.80
2017-11-06T21:26:43.904Z,3.80
2017-11-06T21:29:11.470Z,3.70
2017-11-06T21:31:39.024Z,3.50
2017-11-06T21:34:06.575Z,3.40
2017-11-06T21:36:34.183Z,3.30
2017-11-06T21:39:02.492Z,3.10
2017-11-06T21:41:30.827Z,3.20
2017-11-06T21:43:59.126Z,3.20
2017-11-06T21:46:26.683Z,3.10
2017-11-06T21:48:54.223Z,3.20
2017-11-06T21:51:21.793Z,3.20
2017-11-06T21:53:49.332Z,3.20
2017-11-06T21:56:16.897Z,3.30
2017-11-06T21:58:44.426Z,3.30
2017-11-06T22:01:11.983Z,3.40
2017-11-06T22:03:39.525Z,3.30
2017-11-06T22:06:07.864Z,3.20
2017-11-06T22:08:35.404Z,3.20
2017-11-06T22:11:02.969Z,3.30
2017-11-06T22:13:30.503Z,3.20
2017-11-06T22:15:58.068Z,3.20
2017-11-06T22:18:25.599Z,3.20
2017-11-06T22:20:53.928Z,3.30
2017-11-06T22:23:21.480Z,3.30
2017-11-06T22:25:49.055Z,3.30
2017-11-06T22:28:16.588Z,3.30
2017-11-06T22:51:36.923Z,2.50
2017-11-06T22:54:04.463Z,2.50
2017-11-06T22:56:32.792Z,2.70
2017-11-06T22:59:00.320Z,2.60
2017-11-06T23:01:27.897Z,2.80
2017-11-06T23:03:55.426Z,2.80
2017-11-06T23:06:23.728Z,2.90
2017-11-06T23:08:51.292Z,2.90
2017-11-06T23:11:29.109Z,3.00
2017-11-06T23:13:56.660Z,2.90
2017-11-06T23:16:24.191Z,2.90
2017-11-06T23:18:51.758Z,2.80
2017-11-06T23:21:19.299Z,2.80
2017-11-06T23:23:47.628Z,2.70
2017-11-06T23:26:15.189Z,2.70
2017-11-06T23:28:42.756Z,2.70
2017-11-06T23:31:22.892Z,2.80
2017-11-06T23:33:50.463Z,2.80
2017-11-06T23:36:23.924Z,2.80
2017-11-06T23:38:51.493Z,2.80
2017-11-06T23:41:19.030Z,2.80
2017-11-06T23:43:47.347Z,2.80
2017-11-06T23:46:14.888Z,2.70
2017-11-06T23:48:42.443Z,2.80
2017-11-06T23:51:09.979Z,2.90
2017-11-06T23:53:38.304Z,2.80
2017-11-06T23:56:05.841Z,2.70
2017-11-06T23:58:33.407Z,2.80
